sensor_id;sensor_type;location;lat;lon;timestamp;P1;durP1;ratioP1;P2;durP2;ratioP2
18610;SDS011;9435;52.122;5.502;2023-07-31T00:00:07;2.15;;;1.60;;
18610;SDS011;9435;52.122;5.502;2023-07-31T00:02:35;2.55;;;1.55;;
18610;SDS011;9435;52.122;5.502;2023-07-31T00:05:02;4.28;;;1.77;;
18610;SDS011;9435;52.122;5.502;2023-07-31T00:07:29;3.33;;;1.80;;
18610;SDS011;9435;52.122;5.502;2023-07-31T00:09:56;4.03;;;1.75;;
18610;SDS011;9435;52.122;5.502;2023-07-31T00:12:25;5.03;;;2.20;;
18610;SDS011;9435;52.122;5.502;2023-07-31T00:14:52;2.67;;;1.83;;
18610;SDS011;9435;52.122;5.502;2023-07-31T00:17:19;4.75;;;2.10;;
18610;SDS011;9435;52.122;5.502;2023-07-31T00:19:46;2.97;;;2.03;;
18610;SDS011;9435;52.122;5.502;2023-07-31T00:22:15;3.20;;;2.10;;
18610;SDS011;9435;52.122;5.502;2023-07-31T00:24:43;3.53;;;2.15;;
18610;SDS011;9435;52.122;5.502;2023-07-31T00:27:10;3.63;;;2.05;;
18610;SDS011;9435;52.122;5.502;2023-07-31T00:29:38;4.30;;;2.30;;
18610;SDS011;9435;52.122;5.502;2023-07-31T00:32:05;5.53;;;2.47;;
18610;SDS011;9435;52.122;5.502;2023-07-31T00:34:32;3.33;;;2.33;;
18610;SDS011;9435;52.122;5.502;2023-07-31T00:36:59;3.88;;;2.30;;
18610;SDS011;9435;52.122;5.502;2023-07-31T00:39:27;6.22;;;2.72;;
18610;SDS011;9435;52.122;5.502;2023-07-31T00:41:54;8.63;;;2.88;;
18610;SDS011;9435;52.122;5.502;2023-07-31T00:44:21;8.02;;;3.25;;
18610;SDS011;9435;52.122;5.502;2023-07-31T00:46:49;14.15;;;4.53;;
18610;SDS011;9435;52.122;5.502;2023-07-31T00:49:17;14.05;;;4.60;;
18610;SDS011;9435;52.122;5.502;2023-07-31T00:51:44;11.73;;;5.05;;
18610;SDS011;9435;52.122;5.502;2023-07-31T00:54:10;20.75;;;5.70;;
18610;SDS011;9435;52.122;5.502;2023-07-31T00:56:37;19.10;;;6.00;;
18610;SDS011;9435;52.122;5.502;2023-07-31T00:59:06;20.85;;;6.78;;
18610;SDS011;9435;52.122;5.502;2023-07-31T01:01:33;28.25;;;7.45;;
18610;SDS011;9435;52.122;5.502;2023-07-31T01:04:02;27.00;;;7.47;;
18610;SDS011;9435;52.122;5.502;2023-07-31T01:06:30;31.30;;;7.78;;
18610;SDS011;9435;52.122;5.502;2023-07-31T01:09:03;30.65;;;7.85;;
18610;SDS011;9435;52.122;5.502;2023-07-31T01:11:34;32.25;;;8.07;;
18610;SDS011;9435;52.122;5.502;2023-07-31T01:14:05;39.40;;;8.40;;
18610;SDS011;9435;52.122;5.502;2023-07-31T01:16:32;36.65;;;8.57;;
18610;SDS011;9435;52.122;5.502;2023-07-31T01:18:59;40.47;;;8.20;;
18610;SDS011;9435;52.122;5.502;2023-07-31T01:21:34;34.72;;;8.38;;
18610;SDS011;9435;52.122;5.502;2023-07-31T01:24:22;32.67;;;8.15;;
18610;SDS011;9435;52.122;5.502;2023-07-31T01:26:57;42.33;;;9.05;;
18610;SDS011;9435;52.122;5.502;2023-07-31T01:29:32;43.80;;;9.23;;
18610;SDS011;9435;52.122;5.502;2023-07-31T01:32:03;37.70;;;8.93;;
18610;SDS011;9435;52.122;5.502;2023-07-31T01:34:33;38.20;;;9.00;;
18610;SDS011;9435;52.122;5.502;2023-07-31T01:37:01;41.17;;;8.73;;
18610;SDS011;9435;52.122;5.502;2023-07-31T01:39:28;30.83;;;7.80;;
18610;SDS011;9435;52.122;5.502;2023-07-31T01:41:56;39.88;;;9.00;;
18610;SDS011;9435;52.122;5.502;2023-07-31T01:44:23;37.50;;;8.55;;
18610;SDS011;9435;52.122;5.502;2023-07-31T01:46:50;28.60;;;8.00;;
18610;SDS011;9435;52.122;5.502;2023-07-31T01:49:17;31.58;;;8.38;;
18610;SDS011;9435;52.122;5.502;2023-07-31T01:51:44;29.92;;;7.80;;
18610;SDS011;9435;52.122;5.502;2023-07-31T01:54:11;32.95;;;8.32;;
18610;SDS011;9435;52.122;5.502;2023-07-31T01:56:38;31.58;;;7.80;;
18610;SDS011;9435;52.122;5.502;2023-07-31T01:59:07;29.25;;;8.55;;
18610;SDS011;9435;52.122;5.502;2023-07-31T02:01:34;37.00;;;9.38;;
18610;SDS011;9435;52.122;5.502;2023-07-31T02:04:01;31.58;;;9.25;;
18610;SDS011;9435;52.122;5.502;2023-07-31T02:06:30;36.83;;;8.95;;
18610;SDS011;9435;52.122;5.502;2023-07-31T02:08:57;30.30;;;8.20;;
18610;SDS011;9435;52.122;5.502;2023-07-31T02:11:24;30.77;;;7.35;;
18610;SDS011;9435;52.122;5.502;2023-07-31T02:13:51;25.00;;;7.68;;
18610;SDS011;9435;52.122;5.502;2023-07-31T02:16:19;28.15;;;8.00;;
18610;SDS011;9435;52.122;5.502;2023-07-31T02:18:46;26.02;;;7.43;;
18610;SDS011;9435;52.122;5.502;2023-07-31T02:21:13;26.55;;;7.60;;
18610;SDS011;9435;52.122;5.502;2023-07-31T02:23:39;27.45;;;7.35;;
18610;SDS011;9435;52.122;5.502;2023-07-31T02:26:06;23.70;;;7.22;;
18610;SDS011;9435;52.122;5.502;2023-07-31T02:28:33;30.52;;;7.60;;
18610;SDS011;9435;52.122;5.502;2023-07-31T02:31:00;20.85;;;6.88;;
18610;SDS011;9435;52.122;5.502;2023-07-31T02:33:29;26.45;;;7.45;;
18610;SDS011;9435;52.122;5.502;2023-07-31T02:35:56;30.48;;;7.28;;
18610;SDS011;9435;52.122;5.502;2023-07-31T02:38:23;27.27;;;7.28;;
18610;SDS011;9435;52.122;5.502;2023-07-31T02:40:50;25.98;;;8.05;;
18610;SDS011;9435;52.122;5.502;2023-07-31T02:43:17;23.20;;;6.88;;
18610;SDS011;9435;52.122;5.502;2023-07-31T02:45:44;24.95;;;7.15;;
18610;SDS011;9435;52.122;5.502;2023-07-31T02:48:11;22.60;;;6.80;;
18610;SDS011;9435;52.122;5.502;2023-07-31T02:50:40;29.83;;;7.25;;
18610;SDS011;9435;52.122;5.502;2023-07-31T02:53:07;22.05;;;7.03;;
18610;SDS011;9435;52.122;5.502;2023-07-31T02:55:34;30.63;;;7.38;;
18610;SDS011;9435;52.122;5.502;2023-07-31T02:58:01;26.08;;;7.50;;
18610;SDS011;9435;52.122;5.502;2023-07-31T03:00:28;27.08;;;7.45;;
18610;SDS011;9435;52.122;5.502;2023-07-31T03:02:55;24.15;;;7.43;;
18610;SDS011;9435;52.122;5.502;2023-07-31T03:05:22;28.23;;;7.68;;
18610;SDS011;9435;52.122;5.502;2023-07-31T03:07:50;26.30;;;7.70;;
18610;SDS011;9435;52.122;5.502;2023-07-31T03:10:17;25.08;;;7.78;;
18610;SDS011;9435;52.122;5.502;2023-07-31T03:12:46;26.77;;;7.72;;
18610;SDS011;9435;52.122;5.502;2023-07-31T03:15:13;26.50;;;8.13;;
18610;SDS011;9435;52.122;5.502;2023-07-31T03:17:40;28.73;;;8.63;;
18610;SDS011;9435;52.122;5.502;2023-07-31T03:20:08;33.53;;;9.40;;
18610;SDS011;9435;52.122;5.502;2023-07-31T03:22:35;33.25;;;9.38;;
18610;SDS011;9435;52.122;5.502;2023-07-31T03:25:04;33.22;;;9.35;;
18610;SDS011;9435;52.122;5.502;2023-07-31T03:27:32;27.13;;;8.50;;
18610;SDS011;9435;52.122;5.502;2023-07-31T03:29:59;32.80;;;9.07;;
18610;SDS011;9435;52.122;5.502;2023-07-31T03:32:26;29.90;;;9.10;;
18610;SDS011;9435;52.122;5.502;2023-07-31T03:34:53;34.53;;;9.68;;
18610;SDS011;9435;52.122;5.502;2023-07-31T03:37:21;37.85;;;9.80;;
18610;SDS011;9435;52.122;5.502;2023-07-31T03:39:48;34.47;;;9.60;;
18610;SDS011;9435;52.122;5.502;2023-07-31T03:42:16;36.65;;;9.90;;
18610;SDS011;9435;52.122;5.502;2023-07-31T03:44:43;41.30;;;9.70;;
18610;SDS011;9435;52.122;5.502;2023-07-31T03:47:10;31.73;;;9.23;;
18610;SDS011;9435;52.122;5.502;2023-07-31T03:49:37;30.65;;;10.07;;
18610;SDS011;9435;52.122;5.502;2023-07-31T03:52:05;37.50;;;9.60;;
18610;SDS011;9435;52.122;5.502;2023-07-31T03:54:32;29.55;;;9.05;;
18610;SDS011;9435;52.122;5.502;2023-07-31T03:56:59;30.80;;;9.32;;
18610;SDS011;9435;52.122;5.502;2023-07-31T03:59:28;33.42;;;9.05;;
18610;SDS011;9435;52.122;5.502;2023-07-31T04:01:55;29.20;;;9.18;;
18610;SDS011;9435;52.122;5.502;2023-07-31T04:04:22;30.88;;;9.40;;
18610;SDS011;9435;52.122;5.502;2023-07-31T04:06:49;31.15;;;8.82;;
18610;SDS011;9435;52.122;5.502;2023-07-31T04:09:16;33.25;;;9.50;;
18610;SDS011;9435;52.122;5.502;2023-07-31T04:11:43;35.08;;;9.60;;
18610;SDS011;9435;52.122;5.502;2023-07-31T04:14:10;27.77;;;8.57;;
18610;SDS011;9435;52.122;5.502;2023-07-31T04:16:39;36.20;;;9.45;;
18610;SDS011;9435;52.122;5.502;2023-07-31T04:19:06;28.40;;;9.25;;
18610;SDS011;9435;52.122;5.502;2023-07-31T04:21:33;27.67;;;8.73;;
18610;SDS011;9435;52.122;5.502;2023-07-31T04:24:00;29.73;;;9.52;;
18610;SDS011;9435;52.122;5.502;2023-07-31T04:26:27;29.75;;;9.20;;
18610;SDS011;9435;52.122;5.502;2023-07-31T04:28:54;29.05;;;9.98;;
18610;SDS011;9435;52.122;5.502;2023-07-31T04:31:21;25.08;;;9.07;;
18610;SDS011;9435;52.122;5.502;2023-07-31T04:33:49;31.70;;;8.90;;
18610;SDS011;9435;52.122;5.502;2023-07-31T04:36:17;28.80;;;9.65;;
18610;SDS011;9435;52.122;5.502;2023-07-31T04:38:44;32.10;;;8.98;;
18610;SDS011;9435;52.122;5.502;2023-07-31T04:41:11;28.80;;;8.80;;
18610;SDS011;9435;52.122;5.502;2023-07-31T04:43:38;37.03;;;9.15;;
18610;SDS011;9435;52.122;5.502;2023-07-31T04:46:06;28.90;;;9.00;;
18610;SDS011;9435;52.122;5.502;2023-07-31T04:48:33;34.30;;;9.50;;
18610;SDS011;9435;52.122;5.502;2023-07-31T04:51:01;31.55;;;9.45;;
18610;SDS011;9435;52.122;5.502;2023-07-31T04:53:28;28.80;;;9.15;;
18610;SDS011;9435;52.122;5.502;2023-07-31T04:55:55;23.08;;;8.20;;
18610;SDS011;9435;52.122;5.502;2023-07-31T04:58:22;26.73;;;9.30;;
18610;SDS011;9435;52.122;5.502;2023-07-31T05:00:50;31.90;;;9.60;;
18610;SDS011;9435;52.122;5.502;2023-07-31T05:03:17;25.05;;;9.10;;
18610;SDS011;9435;52.122;5.502;2023-07-31T05:05:44;29.73;;;9.30;;
18610;SDS011;9435;52.122;5.502;2023-07-31T05:08:12;28.15;;;8.77;;
18610;SDS011;9435;52.122;5.502;2023-07-31T05:10:39;22.83;;;8.10;;
18610;SDS011;9435;52.122;5.502;2023-07-31T05:13:06;27.65;;;8.55;;
18610;SDS011;9435;52.122;5.502;2023-07-31T05:15:33;31.02;;;8.93;;
18610;SDS011;9435;52.122;5.502;2023-07-31T05:18:00;23.33;;;7.85;;
18610;SDS011;9435;52.122;5.502;2023-07-31T05:20:27;24.13;;;8.50;;
18610;SDS011;9435;52.122;5.502;2023-07-31T05:22:54;29.73;;;8.32;;
18610;SDS011;9435;52.122;5.502;2023-07-31T05:25:23;20.73;;;7.90;;
18610;SDS011;9435;52.122;5.502;2023-07-31T05:27:50;23.58;;;7.90;;
18610;SDS011;9435;52.122;5.502;2023-07-31T05:30:17;24.83;;;7.95;;
18610;SDS011;9435;52.122;5.502;2023-07-31T05:32:44;21.58;;;7.63;;
18610;SDS011;9435;52.122;5.502;2023-07-31T05:35:11;24.58;;;7.55;;
18610;SDS011;9435;52.122;5.502;2023-07-31T05:37:38;21.67;;;7.47;;
18610;SDS011;9435;52.122;5.502;2023-07-31T05:40:05;20.05;;;6.80;;
18610;SDS011;9435;52.122;5.502;2023-07-31T05:42:35;20.27;;;6.40;;
18610;SDS011;9435;52.122;5.502;2023-07-31T05:45:04;15.35;;;5.80;;
18610;SDS011;9435;52.122;5.502;2023-07-31T05:47:32;17.85;;;5.90;;
18610;SDS011;9435;52.122;5.502;2023-07-31T05:49:59;16.80;;;5.93;;
18610;SDS011;9435;52.122;5.502;2023-07-31T05:52:26;14.05;;;5.50;;
18610;SDS011;9435;52.122;5.502;2023-07-31T05:54:54;13.98;;;5.60;;
18610;SDS011;9435;52.122;5.502;2023-07-31T05:57:21;13.15;;;5.20;;
18610;SDS011;9435;52.122;5.502;2023-07-31T05:59:50;13.05;;;5.60;;
18610;SDS011;9435;52.122;5.502;2023-07-31T06:02:18;13.05;;;5.78;;
18610;SDS011;9435;52.122;5.502;2023-07-31T06:04:45;13.70;;;5.93;;
18610;SDS011;9435;52.122;5.502;2023-07-31T06:07:12;16.73;;;6.50;;
18610;SDS011;9435;52.122;5.502;2023-07-31T06:09:39;18.40;;;7.05;;
18610;SDS011;9435;52.122;5.502;2023-07-31T06:12:07;18.50;;;6.97;;
18610;SDS011;9435;52.122;5.502;2023-07-31T06:14:34;16.17;;;7.28;;
18610;SDS011;9435;52.122;5.502;2023-07-31T06:17:03;15.43;;;7.47;;
18610;SDS011;9435;52.122;5.502;2023-07-31T06:19:30;15.70;;;7.18;;
18610;SDS011;9435;52.122;5.502;2023-07-31T06:21:57;16.60;;;7.10;;
18610;SDS011;9435;52.122;5.502;2023-07-31T06:24:24;16.92;;;7.40;;
18610;SDS011;9435;52.122;5.502;2023-07-31T06:26:51;18.17;;;7.20;;
18610;SDS011;9435;52.122;5.502;2023-07-31T06:29:18;20.08;;;7.85;;
18610;SDS011;9435;52.122;5.502;2023-07-31T06:31:45;17.25;;;6.90;;
18610;SDS011;9435;52.122;5.502;2023-07-31T06:34:14;19.25;;;6.50;;
18610;SDS011;9435;52.122;5.502;2023-07-31T06:36:41;15.77;;;6.53;;
18610;SDS011;9435;52.122;5.502;2023-07-31T06:39:08;15.45;;;6.47;;
18610;SDS011;9435;52.122;5.502;2023-07-31T06:41:35;12.82;;;5.78;;
18610;SDS011;9435;52.122;5.502;2023-07-31T06:44:02;14.90;;;6.40;;
18610;SDS011;9435;52.122;5.502;2023-07-31T06:46:29;16.42;;;5.95;;
18610;SDS011;9435;52.122;5.502;2023-07-31T06:48:56;12.20;;;5.68;;
18610;SDS011;9435;52.122;5.502;2023-07-31T06:51:25;12.57;;;5.40;;
18610;SDS011;9435;52.122;5.502;2023-07-31T06:53:52;13.65;;;5.80;;
18610;SDS011;9435;52.122;5.502;2023-07-31T06:56:20;15.15;;;5.45;;
18610;SDS011;9435;52.122;5.502;2023-07-31T06:58:47;11.10;;;4.90;;
18610;SDS011;9435;52.122;5.502;2023-07-31T07:01:14;11.90;;;5.38;;
18610;SDS011;9435;52.122;5.502;2023-07-31T07:03:41;11.27;;;4.82;;
18610;SDS011;9435;52.122;5.502;2023-07-31T07:06:08;11.48;;;5.43;;
18610;SDS011;9435;52.122;5.502;2023-07-31T07:08:37;9.85;;;4.93;;
18610;SDS011;9435;52.122;5.502;2023-07-31T07:11:04;10.32;;;5.10;;
18610;SDS011;9435;52.122;5.502;2023-07-31T07:13:31;9.82;;;5.35;;
18610;SDS011;9435;52.122;5.502;2023-07-31T07:15:58;8.88;;;4.82;;
18610;SDS011;9435;52.122;5.502;2023-07-31T07:18:25;11.20;;;5.15;;
18610;SDS011;9435;52.122;5.502;2023-07-31T07:20:53;8.52;;;5.03;;
18610;SDS011;9435;52.122;5.502;2023-07-31T07:23:22;7.85;;;4.93;;
18610;SDS011;9435;52.122;5.502;2023-07-31T07:25:50;9.68;;;5.07;;
18610;SDS011;9435;52.122;5.502;2023-07-31T07:28:18;15.02;;;5.95;;
18610;SDS011;9435;52.122;5.502;2023-07-31T07:30:45;9.98;;;5.25;;
18610;SDS011;9435;52.122;5.502;2023-07-31T07:33:16;10.80;;;5.80;;
18610;SDS011;9435;52.122;5.502;2023-07-31T07:35:43;10.13;;;6.03;;
18610;SDS011;9435;52.122;5.502;2023-07-31T07:38:11;8.98;;;5.82;;
18610;SDS011;9435;52.122;5.502;2023-07-31T07:40:38;10.38;;;5.75;;
18610;SDS011;9435;52.122;5.502;2023-07-31T07:43:07;9.98;;;6.30;;
18610;SDS011;9435;52.122;5.502;2023-07-31T07:45:34;11.27;;;6.53;;
18610;SDS011;9435;52.122;5.502;2023-07-31T07:48:01;11.20;;;5.80;;
18610;SDS011;9435;52.122;5.502;2023-07-31T07:50:29;12.57;;;6.10;;
18610;SDS011;9435;52.122;5.502;2023-07-31T07:52:56;11.68;;;6.57;;
18610;SDS011;9435;52.122;5.502;2023-07-31T07:55:23;9.80;;;6.28;;
18610;SDS011;9435;52.122;5.502;2023-07-31T07:57:50;9.50;;;6.30;;
18610;SDS011;9435;52.122;5.502;2023-07-31T08:00:19;8.93;;;6.28;;
18610;SDS011;9435;52.122;5.502;2023-07-31T08:02:46;8.52;;;5.70;;
18610;SDS011;9435;52.122;5.502;2023-07-31T08:05:13;9.70;;;5.65;;
18610;SDS011;9435;52.122;5.502;2023-07-31T08:07:40;11.40;;;6.40;;
18610;SDS011;9435;52.122;5.502;2023-07-31T08:10:07;8.88;;;5.68;;
18610;SDS011;9435;52.122;5.502;2023-07-31T08:12:34;9.15;;;5.13;;
18610;SDS011;9435;52.122;5.502;2023-07-31T08:15:01;10.02;;;5.53;;
18610;SDS011;9435;52.122;5.502;2023-07-31T08:17:30;9.27;;;5.30;;
18610;SDS011;9435;52.122;5.502;2023-07-31T08:19:58;9.38;;;5.55;;
18610;SDS011;9435;52.122;5.502;2023-07-31T08:22:25;8.70;;;5.57;;
18610;SDS011;9435;52.122;5.502;2023-07-31T08:24:52;8.30;;;5.50;;
18610;SDS011;9435;52.122;5.502;2023-07-31T08:27:19;8.13;;;5.38;;
18610;SDS011;9435;52.122;5.502;2023-07-31T08:29:46;7.70;;;5.40;;
18610;SDS011;9435;52.122;5.502;2023-07-31T08:32:13;8.32;;;5.35;;
18610;SDS011;9435;52.122;5.502;2023-07-31T08:34:41;8.73;;;5.30;;
18610;SDS011;9435;52.122;5.502;2023-07-31T08:37:09;7.22;;;5.57;;
18610;SDS011;9435;52.122;5.502;2023-07-31T08:39:36;8.30;;;5.20;;
18610;SDS011;9435;52.122;5.502;2023-07-31T08:42:07;8.73;;;5.10;;
18610;SDS011;9435;52.122;5.502;2023-07-31T08:44:34;7.95;;;4.50;;
18610;SDS011;9435;52.122;5.502;2023-07-31T08:47:03;5.93;;;4.43;;
18610;SDS011;9435;52.122;5.502;2023-07-31T08:49:30;7.20;;;4.70;;
18610;SDS011;9435;52.122;5.502;2023-07-31T08:52:00;5.60;;;3.60;;
18610;SDS011;9435;52.122;5.502;2023-07-31T08:54:28;5.22;;;4.18;;
18610;SDS011;9435;52.122;5.502;2023-07-31T08:56:58;5.32;;;3.50;;
18610;SDS011;9435;52.122;5.502;2023-07-31T08:59:26;4.97;;;3.78;;
18610;SDS011;9435;52.122;5.502;2023-07-31T09:01:55;4.95;;;3.67;;
18610;SDS011;9435;52.122;5.502;2023-07-31T09:04:26;5.80;;;3.92;;
18610;SDS011;9435;52.122;5.502;2023-07-31T09:06:55;7.03;;;4.07;;
18610;SDS011;9435;52.122;5.502;2023-07-31T09:09:27;5.25;;;4.03;;
18610;SDS011;9435;52.122;5.502;2023-07-31T09:11:54;6.18;;;4.53;;
18610;SDS011;9435;52.122;5.502;2023-07-31T09:14:22;6.70;;;5.10;;
18610;SDS011;9435;52.122;5.502;2023-07-31T09:16:52;7.35;;;5.22;;
18610;SDS011;9435;52.122;5.502;2023-07-31T09:19:26;6.43;;;5.30;;
18610;SDS011;9435;52.122;5.502;2023-07-31T09:21:55;6.50;;;4.90;;
18610;SDS011;9435;52.122;5.502;2023-07-31T09:24:25;7.43;;;4.28;;
18610;SDS011;9435;52.122;5.502;2023-07-31T09:26:55;5.70;;;4.30;;
18610;SDS011;9435;52.122;5.502;2023-07-31T09:29:23;6.63;;;4.53;;
18610;SDS011;9435;52.122;5.502;2023-07-31T09:31:52;5.20;;;4.25;;
18610;SDS011;9435;52.122;5.502;2023-07-31T09:34:20;5.72;;;4.57;;
18610;SDS011;9435;52.122;5.502;2023-07-31T09:36:57;7.00;;;4.30;;
18610;SDS011;9435;52.122;5.502;2023-07-31T09:39:29;5.90;;;4.32;;
18610;SDS011;9435;52.122;5.502;2023-07-31T09:41:56;6.78;;;4.60;;
18610;SDS011;9435;52.122;5.502;2023-07-31T09:44:37;6.22;;;4.10;;
18610;SDS011;9435;52.122;5.502;2023-07-31T09:47:05;6.95;;;4.25;;
18610;SDS011;9435;52.122;5.502;2023-07-31T09:49:33;6.72;;;4.43;;
18610;SDS011;9435;52.122;5.502;2023-07-31T09:52:00;6.90;;;4.60;;
18610;SDS011;9435;52.122;5.502;2023-07-31T09:54:28;7.70;;;4.70;;
18610;SDS011;9435;52.122;5.502;2023-07-31T09:56:55;7.50;;;4.70;;
18610;SDS011;9435;52.122;5.502;2023-07-31T09:59:25;10.30;;;4.40;;
18610;SDS011;9435;52.122;5.502;2023-07-31T10:01:52;7.28;;;4.30;;
18610;SDS011;9435;52.122;5.502;2023-07-31T10:04:21;5.57;;;3.78;;
18610;SDS011;9435;52.122;5.502;2023-07-31T10:06:53;5.18;;;3.50;;
18610;SDS011;9435;52.122;5.502;2023-07-31T10:09:21;6.82;;;3.65;;
18610;SDS011;9435;52.122;5.502;2023-07-31T10:11:55;6.43;;;4.05;;
18610;SDS011;9435;52.122;5.502;2023-07-31T10:14:26;5.65;;;3.90;;
18610;SDS011;9435;52.122;5.502;2023-07-31T10:16:53;7.35;;;4.32;;
18610;SDS011;9435;52.122;5.502;2023-07-31T10:19:22;6.72;;;4.50;;
18610;SDS011;9435;52.122;5.502;2023-07-31T10:21:49;10.30;;;4.80;;
18610;SDS011;9435;52.122;5.502;2023-07-31T10:24:17;7.68;;;5.00;;
18610;SDS011;9435;52.122;5.502;2023-07-31T10:26:45;8.27;;;4.97;;
18610;SDS011;9435;52.122;5.502;2023-07-31T10:29:16;9.68;;;5.45;;
18610;SDS011;9435;52.122;5.502;2023-07-31T10:31:45;8.82;;;5.15;;
18610;SDS011;9435;52.122;5.502;2023-07-31T10:34:14;9.43;;;5.10;;
18610;SDS011;9435;52.122;5.502;2023-07-31T10:36:42;8.82;;;5.53;;
18610;SDS011;9435;52.122;5.502;2023-07-31T10:42:09;9.57;;;5.47;;
18610;SDS011;9435;52.122;5.502;2023-07-31T10:44:38;9.95;;;6.05;;
18610;SDS011;9435;52.122;5.502;2023-07-31T10:47:10;8.32;;;5.90;;
18610;SDS011;9435;52.122;5.502;2023-07-31T10:49:40;13.73;;;6.57;;
18610;SDS011;9435;52.122;5.502;2023-07-31T10:52:10;11.95;;;5.90;;
18610;SDS011;9435;52.122;5.502;2023-07-31T10:54:39;9.35;;;6.38;;
18610;SDS011;9435;52.122;5.502;2023-07-31T10:57:15;10.88;;;5.68;;
18610;SDS011;9435;52.122;5.502;2023-07-31T10:59:47;9.82;;;5.82;;
18610;SDS011;9435;52.122;5.502;2023-07-31T11:02:24;8.00;;;5.53;;
18610;SDS011;9435;52.122;5.502;2023-07-31T11:05:07;10.07;;;5.38;;
18610;SDS011;9435;52.122;5.502;2023-07-31T11:07:47;11.85;;;5.22;;
18610;SDS011;9435;52.122;5.502;2023-07-31T11:10:18;8.88;;;4.78;;
18610;SDS011;9435;52.122;5.502;2023-07-31T11:12:45;8.80;;;4.40;;
18610;SDS011;9435;52.122;5.502;2023-07-31T11:15:14;7.78;;;4.85;;
18610;SDS011;9435;52.122;5.502;2023-07-31T11:17:41;7.38;;;5.15;;
18610;SDS011;9435;52.122;5.502;2023-07-31T11:20:08;7.65;;;4.20;;
18610;SDS011;9435;52.122;5.502;2023-07-31T11:22:36;6.55;;;4.50;;
18610;SDS011;9435;52.122;5.502;2023-07-31T11:25:03;7.15;;;3.92;;
18610;SDS011;9435;52.122;5.502;2023-07-31T11:27:31;5.07;;;3.70;;
18610;SDS011;9435;52.122;5.502;2023-07-31T11:30:05;6.70;;;3.72;;
18610;SDS011;9435;52.122;5.502;2023-07-31T11:32:35;4.25;;;3.13;;
18610;SDS011;9435;52.122;5.502;2023-07-31T11:35:02;4.93;;;3.30;;
18610;SDS011;9435;52.122;5.502;2023-07-31T11:37:39;4.05;;;2.78;;
18610;SDS011;9435;52.122;5.502;2023-07-31T11:40:07;4.22;;;2.95;;
18610;SDS011;9435;52.122;5.502;2023-07-31T11:42:35;5.47;;;3.30;;
18610;SDS011;9435;52.122;5.502;2023-07-31T11:45:03;5.25;;;3.40;;
18610;SDS011;9435;52.122;5.502;2023-07-31T11:47:30;4.57;;;3.20;;
18610;SDS011;9435;52.122;5.502;2023-07-31T11:50:00;5.18;;;3.75;;
18610;SDS011;9435;52.122;5.502;2023-07-31T11:52:28;5.65;;;3.92;;
18610;SDS011;9435;52.122;5.502;2023-07-31T11:54:56;6.97;;;4.32;;
18610;SDS011;9435;52.122;5.502;2023-07-31T11:57:24;8.38;;;4.60;;
18610;SDS011;9435;52.122;5.502;2023-07-31T11:59:52;5.70;;;4.15;;
18610;SDS011;9435;52.122;5.502;2023-07-31T12:02:19;5.85;;;4.30;;
18610;SDS011;9435;52.122;5.502;2023-07-31T12:04:48;6.53;;;4.63;;
18610;SDS011;9435;52.122;5.502;2023-07-31T12:07:16;6.82;;;4.47;;
18610;SDS011;9435;52.122;5.502;2023-07-31T12:09:50;9.38;;;5.10;;
18610;SDS011;9435;52.122;5.502;2023-07-31T12:12:19;9.40;;;5.60;;
18610;SDS011;9435;52.122;5.502;2023-07-31T12:14:47;9.43;;;5.60;;
18610;SDS011;9435;52.122;5.502;2023-07-31T12:17:16;9.40;;;5.50;;
18610;SDS011;9435;52.122;5.502;2023-07-31T12:19:45;10.27;;;5.82;;
18610;SDS011;9435;52.122;5.502;2023-07-31T12:22:14;8.00;;;5.50;;
18610;SDS011;9435;52.122;5.502;2023-07-31T12:24:42;6.60;;;4.60;;
18610;SDS011;9435;52.122;5.502;2023-07-31T12:27:10;5.43;;;4.30;;
18610;SDS011;9435;52.122;5.502;2023-07-31T12:29:38;9.98;;;4.60;;
18610;SDS011;9435;52.122;5.502;2023-07-31T12:32:18;8.68;;;5.03;;
18610;SDS011;9435;52.122;5.502;2023-07-31T12:34:49;6.30;;;4.72;;
18610;SDS011;9435;52.122;5.502;2023-07-31T12:37:17;5.47;;;4.30;;
18610;SDS011;9435;52.122;5.502;2023-07-31T12:39:44;5.43;;;4.10;;
18610;SDS011;9435;52.122;5.502;2023-07-31T12:42:11;5.75;;;3.70;;
18610;SDS011;9435;52.122;5.502;2023-07-31T12:44:38;6.53;;;4.15;;
18610;SDS011;9435;52.122;5.502;2023-07-31T12:47:05;4.47;;;3.97;;
18610;SDS011;9435;52.122;5.502;2023-07-31T12:49:32;5.85;;;4.63;;
18610;SDS011;9435;52.122;5.502;2023-07-31T12:51:59;7.35;;;4.88;;
18610;SDS011;9435;52.122;5.502;2023-07-31T12:54:28;7.38;;;5.50;;
18610;SDS011;9435;52.122;5.502;2023-07-31T12:56:55;5.75;;;5.03;;
18610;SDS011;9435;52.122;5.502;2023-07-31T12:59:22;6.30;;;5.32;;
18610;SDS011;9435;52.122;5.502;2023-07-31T13:01:49;6.20;;;5.13;;
18610;SDS011;9435;52.122;5.502;2023-07-31T13:04:16;7.05;;;5.35;;
18610;SDS011;9435;52.122;5.502;2023-07-31T13:06:43;8.20;;;5.63;;
18610;SDS011;9435;52.122;5.502;2023-07-31T13:09:10;8.98;;;5.75;;
18610;SDS011;9435;52.122;5.502;2023-07-31T13:11:39;6.70;;;5.82;;
18610;SDS011;9435;52.122;5.502;2023-07-31T13:14:06;7.97;;;6.35;;
18610;SDS011;9435;52.122;5.502;2023-07-31T13:16:33;7.57;;;5.72;;
18610;SDS011;9435;52.122;5.502;2023-07-31T13:19:00;9.85;;;5.95;;
18610;SDS011;9435;52.122;5.502;2023-07-31T13:21:27;8.43;;;5.93;;
18610;SDS011;9435;52.122;5.502;2023-07-31T13:23:54;8.45;;;6.00;;
18610;SDS011;9435;52.122;5.502;2023-07-31T13:26:23;7.95;;;5.82;;
18610;SDS011;9435;52.122;5.502;2023-07-31T13:28:51;11.45;;;6.13;;
18610;SDS011;9435;52.122;5.502;2023-07-31T13:31:18;7.53;;;6.10;;
18610;SDS011;9435;52.122;5.502;2023-07-31T13:33:45;7.35;;;5.85;;
18610;SDS011;9435;52.122;5.502;2023-07-31T13:36:12;8.25;;;6.28;;
18610;SDS011;9435;52.122;5.502;2023-07-31T13:38:39;7.97;;;5.60;;
18610;SDS011;9435;52.122;5.502;2023-07-31T13:41:06;6.07;;;4.80;;
18610;SDS011;9435;52.122;5.502;2023-07-31T13:43:33;7.18;;;5.65;;
18610;SDS011;9435;52.122;5.502;2023-07-31T13:46:02;7.85;;;4.88;;
18610;SDS011;9435;52.122;5.502;2023-07-31T13:48:31;6.03;;;4.18;;
18610;SDS011;9435;52.122;5.502;2023-07-31T13:50:59;5.95;;;4.28;;
18610;SDS011;9435;52.122;5.502;2023-07-31T13:53:26;7.00;;;4.40;;
18610;SDS011;9435;52.122;5.502;2023-07-31T13:55:54;7.38;;;4.70;;
18610;SDS011;9435;52.122;5.502;2023-07-31T13:58:21;7.10;;;5.43;;
18610;SDS011;9435;52.122;5.502;2023-07-31T14:00:49;9.55;;;6.13;;
18610;SDS011;9435;52.122;5.502;2023-07-31T14:03:19;8.40;;;6.60;;
18610;SDS011;9435;52.122;5.502;2023-07-31T14:05:46;9.93;;;7.03;;
18610;SDS011;9435;52.122;5.502;2023-07-31T14:08:13;9.07;;;7.18;;
18610;SDS011;9435;52.122;5.502;2023-07-31T14:10:40;8.32;;;6.80;;
18610;SDS011;9435;52.122;5.502;2023-07-31T14:13:07;10.55;;;7.55;;
18610;SDS011;9435;52.122;5.502;2023-07-31T14:15:34;9.00;;;7.40;;
18610;SDS011;9435;52.122;5.502;2023-07-31T14:18:01;9.68;;;7.50;;
18610;SDS011;9435;52.122;5.502;2023-07-31T14:20:30;9.85;;;7.53;;
18610;SDS011;9435;52.122;5.502;2023-07-31T14:22:58;11.93;;;8.40;;
18610;SDS011;9435;52.122;5.502;2023-07-31T14:25:25;11.70;;;8.82;;
18610;SDS011;9435;52.122;5.502;2023-07-31T14:27:52;12.60;;;8.80;;
18610;SDS011;9435;52.122;5.502;2023-07-31T14:30:19;12.23;;;9.32;;
18610;SDS011;9435;52.122;5.502;2023-07-31T14:32:46;11.95;;;9.10;;
18610;SDS011;9435;52.122;5.502;2023-07-31T14:35:13;12.30;;;9.73;;
18610;SDS011;9435;52.122;5.502;2023-07-31T14:37:42;12.95;;;9.80;;
18610;SDS011;9435;52.122;5.502;2023-07-31T14:40:11;11.77;;;8.85;;
18610;SDS011;9435;52.122;5.502;2023-07-31T14:42:39;11.40;;;8.07;;
18610;SDS011;9435;52.122;5.502;2023-07-31T14:45:06;12.93;;;9.05;;
18610;SDS011;9435;52.122;5.502;2023-07-31T14:47:35;15.82;;;9.05;;
18610;SDS011;9435;52.122;5.502;2023-07-31T14:50:02;14.43;;;9.20;;
18610;SDS011;9435;52.122;5.502;2023-07-31T14:52:30;13.32;;;8.38;;
18610;SDS011;9435;52.122;5.502;2023-07-31T14:54:58;12.05;;;8.10;;
18610;SDS011;9435;52.122;5.502;2023-07-31T14:57:26;13.93;;;8.10;;
18610;SDS011;9435;52.122;5.502;2023-07-31T14:59:53;12.10;;;8.25;;